createdAt,value
2018-07-26T02:33:48.448Z,21.80
2018-07-26T02:36:18.816Z,21.80
2018-07-26T02:38:49.617Z,21.80
2018-07-26T02:41:20.028Z,21.80
2018-07-26T02:43:50.399Z,21.80
2018-07-26T02:46:20.824Z,21.70
2018-07-26T02:48:51.203Z,21.70
2018-07-26T02:51:21.820Z,21.70
2018-07-26T02:53:52.213Z,21.70
2018-07-26T02:56:22.675Z,21.70
2018-07-26T02:58:53.359Z,21.70
2018-07-26T03:01:23.738Z,21.70
2018-07-26T03:03:54.161Z,21.70
2018-07-26T03:06:24.721Z,21.70
2018-07-26T03:08:55.190Z,21.70
2018-07-26T03:11:25.552Z,21.70
2018-07-26T03:13:55.889Z,21.70
2018-07-26T03:16:26.203Z,21.60
2018-07-26T03:18:56.596Z,21.60
2018-07-26T03:21:26.989Z,21.60
2018-07-26T03:23:57.485Z,21.60
2018-07-26T03:26:27.931Z,21.60
2018-07-26T03:28:58.428Z,21.60
2018-07-26T03:31:28.965Z,21.50
2018-07-26T03:33:59.531Z,21.50
2018-07-26T03:36:29.979Z,21.40
2018-07-26T03:39:00.496Z,21.40
2018-07-26T03:41:30.932Z,21.40
2018-07-26T03:44:01.557Z,21.30
2018-07-26T03:46:32.038Z,21.40
2018-07-26T03:49:02.855Z,21.40
2018-07-26T03:51:33.297Z,21.40
2018-07-26T03:54:03.637Z,21.40
2018-07-26T03:56:34.388Z,21.30
2018-07-26T03:59:04.970Z,21.40
2018-07-26T04:01:35.416Z,21.40
2018-07-26T04:04:06.340Z,21.40
2018-07-26T04:07:07.806Z,21.40
2018-07-26T04:10:09.668Z,21.40
2018-07-26T04:12:40.996Z,21.40
2018-07-26T04:15:28.306Z,21.30
2018-07-26T04:18:04.054Z,21.30
2018-07-26T04:20:35.224Z,21.30
2018-07-26T04:26:33.080Z,21.20
2018-07-26T04:29:03.731Z,21.20
2018-07-26T04:31:34.784Z,21.20
2018-07-26T04:34:23.142Z,21.10
2018-07-26T04:37:02.442Z,21.10
2018-07-26T04:39:33.665Z,21.10
2018-07-26T04:42:04.234Z,21.20
2018-07-26T04:44:34.748Z,21.20
2018-07-26T04:47:06.849Z,21.30
2018-07-26T04:49:56.375Z,21.30
2018-07-26T04:52:58.968Z,21.40
2018-07-26T04:55:55.298Z,21.50
2018-07-26T04:58:53.979Z,21.90
2018-07-26T05:01:50.297Z,22.40
2018-07-26T05:04:37.945Z,23.10
2018-07-26T05:10:27.425Z,24.20
2018-07-26T05:19:07.955Z,25.80
2018-07-26T05:22:12.217Z,26.20
2018-07-26T05:24:55.627Z,26.30
2018-07-26T05:27:53.643Z,26.60
2018-07-26T05:30:58.881Z,27.00
2018-07-26T05:33:54.065Z,27.30
2018-07-26T05:36:41.833Z,27.60
2018-07-26T05:46:07.549Z,28.10
2018-07-26T05:52:20.892Z,28.30
2018-07-26T05:54:54.602Z,28.30
2018-07-26T05:57:36.570Z,28.30
2018-07-26T06:00:12.275Z,28.30
2018-07-26T06:02:43.573Z,28.20
2018-07-26T06:05:13.975Z,28.20
2018-07-26T06:07:44.397Z,28.20
2018-07-26T06:10:20.081Z,28.10
2018-07-26T06:15:43.557Z,28.40
2018-07-26T06:21:14.047Z,28.30
2018-07-26T06:24:02.101Z,28.30
2018-07-26T06:30:02.588Z,28.60
2018-07-26T06:36:23.966Z,28.90
2018-07-26T06:42:31.213Z,29.10
2018-07-26T06:55:04.872Z,29.20
2018-07-26T07:01:27.832Z,29.30
2018-07-26T07:04:18.394Z,29.30
2018-07-26T07:07:16.393Z,29.50
2018-07-26T07:13:14.378Z,29.70
2018-07-26T07:18:59.370Z,29.80
2018-07-26T07:21:51.378Z,29.50
2018-07-26T07:24:32.589Z,29.50
2018-07-26T07:34:15.992Z,29.50
2018-07-26T07:36:58.158Z,29.50
2018-07-26T07:39:31.940Z,29.50
2018-07-26T07:42:16.721Z,29.70
2018-07-26T07:45:04.067Z,29.70
2018-07-26T07:48:07.858Z,29.70
2018-07-26T07:50:49.391Z,29.60
2018-07-26T07:53:57.902Z,29.80
2018-07-26T07:56:51.570Z,30.10
2018-07-26T07:59:29.126Z,30.20
2018-07-26T08:02:06.282Z,30.50
2018-07-26T08:04:44.273Z,30.70
2018-07-26T08:07:21.923Z,30.60
2018-07-26T08:09:54.486Z,30.50
2018-07-26T08:12:29.493Z,30.50
2018-07-26T08:15:12.440Z,30.50
2018-07-26T08:17:54.859Z,30.50
2018-07-26T08:20:36.854Z,30.50
2018-07-26T08:23:24.733Z,30.40
2018-07-26T08:26:02.045Z,30.40
2018-07-26T08:28:37.113Z,30.30
2018-07-26T08:34:04.390Z,30.30
2018-07-26T08:36:38.591Z,30.40
2018-07-26T08:39:18.875Z,30.30
2018-07-26T08:41:56.946Z,30.30
2018-07-26T08:44:28.233Z,30.50
2018-07-26T08:46:59.859Z,30.60
2018-07-26T08:49:31.833Z,30.50
2018-07-26T08:52:10.337Z,30.50
2018-07-26T08:54:43.067Z,30.50
2018-07-26T08:57:14.880Z,30.60
2018-07-26T08:59:45.345Z,30.70
2018-07-26T09:02:16.817Z,30.80
2018-07-26T09:04:47.161Z,30.70
2018-07-26T09:07:18.362Z,30.70
2018-07-26T09:09:49.297Z,30.80
2018-07-26T09:12:22.246Z,30.80
2018-07-26T09:14:57.170Z,31.00
2018-07-26T09:17:30.250Z,31.10
2018-07-26T09:20:01.143Z,31.10
2018-07-26T09:22:31.637Z,31.10
2018-07-26T09:25:03.248Z,31.30
2018-07-26T09:27:34.087Z,31.40
2018-07-26T09:30:06.065Z,31.40
2018-07-26T09:32:58.545Z,31.50
2018-07-26T09:35:33.205Z,31.50
2018-07-26T09:38:04.519Z,31.60
2018-07-26T09:40:37.865Z,31.60
2018-07-26T09:43:10.368Z,31.50
2018-07-26T09:45:47.584Z,31.40
2018-07-26T09:48:21.125Z,31.40
2018-07-26T09:50:55.523Z,31.50
2018-07-26T09:53:38.884Z,31.50
2018-07-26T09:56:48.071Z,31.50
2018-07-26T10:02:37.759Z,31.50
2018-07-26T10:05:35.297Z,31.40
2018-07-26T10:08:25.713Z,31.40
2018-07-26T10:11:17.979Z,31.20
2018-07-26T10:14:13.062Z,31.00
2018-07-26T10:17:12.262Z,30.90
2018-07-26T10:20:05.785Z,30.90
2018-07-26T10:22:55.747Z,31.10
2018-07-26T10:25:37.986Z,31.20
2018-07-26T10:28:29.216Z,31.10
2018-07-26T10:31:12.823Z,31.20
2018-07-26T10:34:09.955Z,31.40
2018-07-26T10:37:00.974Z,31.40
2018-07-26T10:39:51.850Z,31.40
2018-07-26T10:42:46.207Z,31.50
2018-07-26T10:45:33.200Z,31.70
2018-07-26T10:48:23.052Z,32.00
2018-07-26T10:51:05.574Z,32.00
2018-07-26T10:53:49.491Z,31.80
2018-07-26T10:56:39.745Z,31.60
2018-07-26T10:59:49.413Z,31.80
2018-07-26T11:11:28.956Z,32.10
2018-07-26T11:14:15.249Z,32.20
2018-07-26T11:17:06.859Z,32.30
2018-07-26T11:19:58.077Z,32.30
2018-07-26T11:22:57.123Z,32.40
2018-07-26T11:25:41.788Z,32.50
2018-07-26T11:33:55.122Z,32.50
2018-07-26T11:39:47.620Z,32.40
2018-07-26T11:42:44.697Z,32.40
2018-07-26T11:45:39.255Z,32.40
2018-07-26T11:48:24.053Z,32.50
2018-07-26T11:54:24.748Z,32.80
2018-07-26T11:57:04.368Z,32.90
2018-07-26T12:02:56.807Z,32.80
2018-07-26T12:05:51.249Z,32.80
2018-07-26T12:08:41.236Z,32.50
2018-07-26T12:14:22.734Z,32.20
2018-07-26T12:17:12.326Z,32.30
2018-07-26T12:23:13.238Z,32.50
2018-07-26T12:26:17.832Z,32.60
2018-07-26T12:31:59.200Z,32.40
2018-07-26T12:34:56.437Z,32.40
2018-07-26T12:37:46.423Z,32.20
2018-07-26T12:40:36.959Z,32.30
2018-07-26T12:43:27.041Z,32.40
2018-07-26T12:46:19.405Z,32.50
2018-07-26T12:48:59.440Z,32.60
2018-07-26T12:51:50.545Z,32.70
2018-07-26T12:54:37.560Z,32.50
2018-07-26T13:00:22.290Z,32.30
2018-07-26T13:03:26.651Z,32.30
2018-07-26T13:06:27.557Z,32.40
2018-07-26T13:09:31.167Z,32.40
2018-07-26T13:12:29.194Z,32.30
2018-07-26T13:15:28.516Z,32.40
2018-07-26T13:18:29.708Z,32.40
2018-07-26T13:21:28.373Z,32.30
2018-07-26T13:24:25.244Z,32.30
2018-07-26T13:30:15.547Z,32.30
2018-07-26T13:33:16.270Z,32.10
2018-07-26T13:36:13.935Z,32.10
2018-07-26T13:39:17.651Z,32.10
2018-07-26T13:54:03.472Z,32.40
2018-07-26T13:56:54.789Z,32.50
2018-07-26T13:59:40.315Z,32.50
2018-07-26T14:02:46.847Z,32.50
2018-07-26T14:08:38.778Z,32.50
2018-07-26T14:11:32.385Z,32.40
2018-07-26T14:17:19.179Z,32.40
2018-07-26T14:20:28.328Z,32.20
2018-07-26T14:23:26.359Z,32.10
2018-07-26T14:26:37.003Z,32.00
2018-07-26T14:29:26.393Z,32.20
2018-07-26T14:32:13.622Z,32.30
2018-07-26T14:38:47.232Z,32.40
2018-07-26T14:45:04.451Z,32.30
2018-07-26T14:47:55.067Z,32.30
2018-07-26T14:50:50.779Z,32.40
2018-07-26T14:56:37.680Z,32.40
2018-07-26T14:59:31.437Z,32.40
2018-07-26T15:02:17.781Z,32.30
2018-07-26T15:08:20.454Z,32.30
2018-07-26T15:11:03.418Z,32.40
2018-07-26T15:16:59.458Z,32.40
2018-07-26T15:19:55.831Z,32.30
2018-07-26T15:25:38.178Z,32.50
2018-07-26T15:28:34.080Z,32.30
2018-07-26T15:31:32.886Z,32.30
2018-07-26T15:34:25.640Z,32.30
2018-07-26T15:37:26.223Z,32.20
2018-07-26T15:40:20.708Z,32.10
2018-07-26T15:43:42.548Z,32.20
2018-07-26T15:46:20.054Z,32.30
2018-07-26T15:48:50.493Z,32.30
2018-07-26T15:54:38.987Z,32.20
2018-07-26T15:57:24.567Z,32.20
2018-07-26T16:00:12.990Z,32.10
2018-07-26T16:06:24.795Z,32.10
2018-07-26T16:09:15.771Z,32.10
2018-07-26T16:14:58.477Z,32.00
2018-07-26T16:17:47.010Z,32.00
2018-07-26T16:20:37.113Z,32.00
2018-07-26T16:23:35.693Z,31.90
2018-07-26T16:36:14.416Z,31.90
2018-07-26T16:39:01.671Z,32.00
2018-07-26T16:41:50.019Z,31.90
2018-07-26T16:44:43.201Z,31.90
2018-07-26T16:47:32.817Z,31.90
2018-07-26T16:50:43.766Z,31.90
2018-07-26T16:53:43.275Z,31.80
2018-07-26T16:56:46.195Z,31.80
2018-07-26T16:59:45.770Z,31.80
2018-07-26T17:02:37.673Z,31.70
2018-07-26T17:05:40.693Z,31.70
2018-07-26T17:08:37.883Z,31.70
2018-07-26T17:14:30.586Z,31.80
2018-07-26T17:17:21.849Z,31.80
2018-07-26T17:20:06.838Z,31.80
2018-07-26T17:25:47.375Z,31.70
2018-07-26T17:28:30.190Z,31.70
2018-07-26T17:31:16.581Z,31.60
2018-07-26T17:34:08.308Z,31.70
2018-07-26T17:36:43.529Z,31.60
2018-07-26T17:39:23.821Z,31.60
2018-07-26T17:56:51.308Z,31.50
2018-07-26T17:59:30.293Z,31.40
2018-07-26T18:02:00.753Z,31.20
2018-07-26T18:04:32.683Z,31.20
2018-07-26T18:07:04.356Z,31.10
2018-07-26T18:09:38.347Z,31.10
2018-07-26T18:12:23.726Z,31.00
2018-07-26T18:15:00.827Z,31.00
2018-07-26T18:17:34.870Z,31.00
2018-07-26T18:20:14.068Z,30.90
2018-07-26T18:22:45.117Z,30.90
2018-07-26T18:25:19.058Z,30.90
2018-07-26T18:27:53.924Z,30.80
2018-07-26T18:30:41.245Z,30.80
2018-07-26T18:33:18.530Z,30.80
2018-07-26T18:35:51.999Z,30.70
2018-07-26T18:38:25.613Z,30.70
2018-07-26T18:41:00.202Z,30.60
2018-07-26T18:43:32.581Z,30.50
2018-07-26T18:46:09.621Z,30.40
2018-07-26T18:48:47.132Z,30.40
2018-07-26T18:51:22.904Z,30.30
2018-07-26T18:53:58.104Z,30.20
2018-07-26T18:56:39.697Z,30.20
2018-07-26T18:59:13.334Z,30.10
2018-07-26T19:01:45.308Z,29.80
2018-07-26T19:04:30.011Z,29.70
2018-07-26T19:07:04.940Z,29.70
2018-07-26T19:09:42.859Z,29.70
2018-07-26T19:12:23.871Z,29.60
2018-07-26T19:14:59.098Z,29.50
2018-07-26T19:17:29.867Z,29.40
2018-07-26T19:20:06.494Z,29.40
2018-07-26T19:22:45.142Z,29.20
2018-07-26T19:25:24.633Z,29.20
2018-07-26T19:27:59.370Z,29.00
2018-07-26T19:30:31.449Z,28.90
2018-07-26T19:33:07.057Z,28.80
2018-07-26T19:35:38.751Z,28.70
2018-07-26T19:38:13.250Z,28.60
2018-07-26T19:40:44.305Z,28.50
2018-07-26T19:43:14.792Z,28.40
2018-07-26T19:45:45.228Z,28.30
2018-07-26T19:48:15.640Z,28.20
2018-07-26T19:50:46.576Z,28.20
2018-07-26T19:53:17.694Z,28.10
2018-07-26T19:55:48.180Z,28.10
2018-07-26T19:58:18.483Z,28.00
2018-07-26T20:00:50.500Z,27.90
2018-07-26T20:03:21.000Z,27.90
2018-07-26T20:05:55.279Z,27.80
2018-07-26T20:08:31.035Z,27.70
2018-07-26T20:11:02.636Z,27.60
2018-07-26T20:13:33.803Z,27.60
2018-07-26T20:16:09.432Z,27.50
2018-07-26T20:18:41.460Z,27.50
2018-07-26T20:21:13.873Z,27.40
2018-07-26T20:23:46.107Z,27.20
2018-07-26T20:26:19.023Z,27.20
2018-07-26T20:28:51.454Z,27.10
2018-07-26T20:31:26.224Z,27.00
2018-07-26T20:34:00.421Z,26.90
2018-07-26T20:36:34.414Z,26.90
2018-07-26T20:39:11.580Z,26.80
2018-07-26T20:41:44.055Z,26.80
2018-07-26T20:44:16.253Z,26.60
2018-07-26T20:46:51.780Z,26.50
2018-07-26T20:49:23.055Z,26.40
2018-07-26T20:51:54.285Z,26.40
2018-07-26T20:54:25.562Z,26.30
2018-07-26T20:56:56.571Z,26.30
2018-07-26T20:59:31.607Z,26.20
2018-07-26T21:02:05.958Z,26.10
2018-07-26T21:04:40.575Z,26.00
2018-07-26T21:07:16.642Z,26.00
2018-07-26T21:09:51.523Z,26.00
2018-07-26T21:12:23.787Z,26.00
2018-07-26T21:15:03.037Z,25.90
2018-07-26T21:17:41.362Z,25.90
2018-07-26T21:20:15.553Z,25.80
2018-07-26T21:22:47.913Z,25.70
2018-07-26T21:25:26.770Z,25.60
2018-07-26T21:28:03.851Z,25.60
2018-07-26T21:30:41.154Z,25.50
2018-07-26T21:33:20.922Z,25.40
2018-07-26T21:36:04.067Z,25.40
2018-07-26T21:38:41.786Z,25.30
2018-07-26T21:41:27.129Z,25.30
2018-07-26T21:44:03.199Z,25.20
2018-07-26T21:46:47.466Z,25.10
2018-07-26T21:49:41.619Z,25.00
2018-07-26T21:52:21.686Z,25.00
2018-07-26T21:54:58.398Z,24.80
2018-07-26T21:57:37.654Z,24.80
2018-07-26T22:00:17.868Z,24.70
2018-07-26T22:03:00.376Z,24.60
2018-07-26T22:08:40.032Z,24.60
2018-07-26T22:11:21.198Z,24.50
2018-07-26T22:14:04.320Z,24.50
2018-07-26T22:16:47.307Z,24.40
2018-07-26T22:19:25.462Z,24.30
2018-07-26T22:22:07.483Z,24.20
2018-07-26T22:24:45.502Z,24.20
2018-07-26T22:27:28.372Z,24.10
2018-07-26T22:30:08.546Z,24.10
2018-07-26T22:32:42.663Z,24.00
2018-07-26T22:35:19.313Z,24.00
2018-07-26T22:37:56.539Z,23.90
2018-07-26T22:40:33.497Z,23.90
2018-07-26T22:43:09.901Z,23.90
2018-07-26T22:45:49.760Z,23.80
2018-07-26T22:48:31.626Z,23.70
2018-07-26T22:51:07.723Z,23.70
2018-07-26T22:53:46.646Z,23.60
2018-07-26T22:56:28.762Z,23.60
2018-07-26T22:59:05.863Z,23.50
2018-07-26T23:01:51.732Z,23.50
2018-07-26T23:04:31.882Z,23.40
2018-07-26T23:07:12.333Z,23.40
2018-07-26T23:09:51.532Z,23.40
2018-07-26T23:12:31.323Z,23.40
2018-07-26T23:15:13.414Z,23.40
2018-07-26T23:17:53.680Z,23.40
2018-07-26T23:20:32.493Z,23.30
2018-07-26T23:23:12.585Z,23.30
2018-07-26T23:25:45.969Z,23.20
2018-07-26T23:28:16.469Z,23.10
2018-07-26T23:30:46.872Z,23.00
2018-07-26T23:33:17.187Z,23.00
2018-07-26T23:35:47.744Z,22.90
2018-07-26T23:38:18.270Z,22.90
2018-07-26T23:40:49.107Z,22.90
2018-07-26T23:43:23.359Z,22.90
2018-07-26T23:45:56.057Z,22.80
2018-07-26T23:48:30.467Z,22.70
2018-07-26T23:51:09.232Z,22.70
2018-07-26T23:53:39.848Z,22.70
2018-07-26T23:56:10.534Z,22.60
2018-07-26T23:58:41.204Z,22.60
